Inukjuak Airport
CYPH : now visible

Airfield :











YOU CAN JOIN US ON...

 
LOGIN :

Register | Disclaimer

   EN    FR    IT 

 









Legend :    VFR   Marginal VFR   IFR   Intensive IFR   Very Intensive IFR
Visi :
Ceiling :
>= 8 km
>= 3000ft
5 to 8 km
1000 to 3000 ft
1500m to 5 km
500 to 1000 ft
800 to 1500m
200 to 500 ft
< 800m
< 200 ft
Symbols :   Thunderstorms  Fog  Heavy snow  Heavy precipitations  Wind > 20 kt






- Airport Elevation : 83 ft
- IATA code : YPH


CYPH - Inukjuak

CURRENT METAR :
  • 021146Z AUTO 03003KT 9SM BKN011 OVC027 05/03 A2962 RMK SLP033

EXPIRED METARs :
  • 021100Z AUTO 03003KT 350V120 9SM BKN025 05/03 A2961 RMK SLP031
  • 021000Z AUTO 26003KT 9SM OVC025 03/02 A2961 RMK SLP031
  • 020935Z AUTO 00000KT 9SM OVC025 03/02 A2960 RMK SLP029
  • 020900Z AUTO 13007KT 9SM OVC023 03/02 A2961 RMK SLP031

TAF TAF CYPH
Valid from the 02 at 12:00 until the 03 at 00:00 UTC


021155Z 0212/0224 VRB03KT P6SM BKN010 OVC025
TEMPO 0212/0215 SCT012 OVC025
FM021500 02006KT P6SM BKN020
TEMPO 0215/0218 BKN030
FM021800 34012KT P6SM SCT030
BECMG 0218/0220 34015G25KT
BECMG 0222/0224 34015KT RMK FCST BASED ON AUTO OBS. NXT FCST BY 021800Z
CZUL FIR / North America



MET'MAP, your aeronautical weather chart ! - Copyright ORBIFLY December 2007 - Disclaimer

ORBIFLY MET'MAP TEAM :

Programming & Development : Alexandra Zaïnal
Original concept : Baudouin d'Aumeries
Technical & hardware support : Manuel Goepfert
Assistance : Marc-Olivier Méhu




SOURCES & CREDITS :

   NOAA       Earth
Advisory